Time;durP1;ratioP1;P1;durP2;ratioP2;P2;SDS_P1;SDS_P2;PMS_P1;PMS_P2;Temp;Humidity;BMP_temperature;BMP_pressure;BME280_temperature;BME280_humidity;BME280_pressure;Samples;Min_cycle;Max_cycle;Signal;HPM_P1;HPM_P2
2023/07/31 00:00:35;;;;;;;2.73;1.40;;;16.90;70.10;;;17.03;60.06;97912.63;4931439;29;21204;-79
2023/07/31 00:03:02;;;;;;;2.47;1.70;;;16.90;70.80;;;16.75;61.31;97863.53;4931906;29;20460;-78
2023/07/31 00:05:30;;;;;;;4.77;1.40;;;16.90;71.60;;;16.73;61.52;97876.59;4927657;29;21144;-79
2023/07/31 00:07:57;;;;;;;3.37;1.67;;;16.90;71.20;;;16.90;61.90;97909.22;4926251;29;20957;-82
2023/07/31 00:10:24;;;;;;;3.97;1.47;;;16.90;71.30;;;15.67;60.33;97711.50;4930943;29;20460;-83
2023/07/31 00:12:52;;;;;;;3.23;1.60;;;16.90;70.60;;;16.66;62.08;97844.09;4952748;29;20467;-76
2023/07/31 00:15:19;;;;;;;3.20;1.77;;;16.90;72.90;;;16.67;61.07;97877.63;4956603;29;20439;-80
2023/07/31 00:17:48;;;;;;;2.70;1.33;;;16.90;71.60;;;16.90;61.65;97881.13;4943297;29;20490;-79
2023/07/31 00:20:18;;;;;;;3.53;1.60;;;16.80;72.10;;;16.12;63.12;97752.28;4937201;29;21013;-78
2023/07/31 00:22:45;;;;;;;2.13;1.50;;;16.80;72.60;;;16.55;62.36;97850.53;4924984;29;20467;-78
2023/07/31 00:25:13;;;;;;;2.10;1.87;;;16.70;71.80;;;16.95;63.04;97892.91;4919803;29;20459;-78
2023/07/31 00:27:44;;;;;;;5.10;1.80;;;16.80;72.40;;;16.97;60.61;97888.00;4923738;29;20466;-82
2023/07/31 00:30:12;;;;;;;1.67;1.53;;;16.80;71.20;;;16.88;61.31;97845.09;4935051;29;20468;-80
2023/07/31 00:32:39;;;;;;;2.87;1.50;;;16.90;72.00;;;17.06;60.75;97871.16;4911926;29;20473;-81
2023/07/31 00:35:08;;;;;;;4.67;2.00;;;16.90;71.90;;;16.81;60.23;97873.38;4936001;29;20478;-82
2023/07/31 00:37:36;;;;;;;1.73;1.50;;;16.90;71.00;;;16.98;61.38;97884.19;4919643;29;20472;-80
2023/07/31 00:40:03;;;;;;;3.23;2.00;;;16.80;71.70;;;16.43;60.86;97824.25;4921500;29;20467;-83
2023/07/31 00:42:31;;;;;;;1.67;1.43;;;16.80;71.50;;;16.20;60.53;97767.34;4939372;29;20460;-81
2023/07/31 00:44:58;;;;;;;4.37;1.53;;;16.80;71.20;;;16.55;60.73;97828.72;4920126;29;20452;-82
2023/07/31 00:47:26;;;;;;;4.50;1.60;;;16.80;71.50;;;16.74;61.06;97859.16;4933435;29;20460;-78
2023/07/31 00:49:54;;;;;;;1.87;1.60;;;16.80;72.00;;;16.90;61.79;97881.91;4918835;29;20976;-81
2023/07/31 00:52:23;;;;;;;2.27;1.50;;;16.80;71.80;;;16.85;62.72;97851.88;4946691;29;20481;-83
2023/07/31 00:54:50;;;;;;;2.83;1.30;;;16.90;73.20;;;16.50;60.57;97804.94;4931021;29;20455;-82
2023/07/31 00:57:19;;;;;;;2.00;1.60;;;16.90;71.30;;;16.48;60.07;97796.19;4921936;29;20466;-83
2023/07/31 00:59:46;;;;;;;2.17;1.40;;;17.00;70.90;;;17.46;62.19;97886.19;4917847;29;20468;-79
2023/07/31 01:02:15;;;;;;;2.37;1.57;;;17.20;73.10;;;17.46;60.77;97880.72;4941570;29;20470;-82
2023/07/31 01:04:45;;;;;;;5.13;1.50;;;17.30;71.60;;;17.42;58.84;97887.81;4927793;29;20460;-79
2023/07/31 01:07:18;;;;;;;2.00;1.53;;;17.30;70.50;;;17.58;59.99;97877.78;4928430;29;20931;-81
2023/07/31 01:10:00;;;;;;;4.00;1.57;;;17.30;72.10;;;17.32;61.16;97879.53;4929182;29;20462;-80
2023/07/31 01:12:31;;;;;;;1.63;1.53;;;17.20;70.60;;;16.92;59.86;97797.94;4911808;29;20540;-81
2023/07/31 01:15:10;;;;;;;2.27;1.53;;;17.30;71.70;;;17.60;60.32;97883.81;4919126;29;20456;-80
2023/07/31 01:17:38;;;;;;;2.10;1.13;;;17.40;71.90;;;17.58;60.58;97875.03;4925010;29;20488;-83
2023/07/31 01:20:12;;;;;;;4.33;1.27;;;17.40;71.60;;;17.46;59.51;97845.22;4940316;29;20461;-79
2023/07/31 01:23:33;;;;;;;2.53;1.50;;;17.50;71.50;;;17.55;58.88;97860.03;4938870;29;20972;-84
2023/07/31 01:26:13;;;;;;;2.63;1.40;;;17.50;71.00;;;17.67;59.46;97861.72;4929574;29;20471;-80
2023/07/31 01:28:55;;;;;;;5.40;1.97;;;17.50;72.20;;;17.53;59.30;97854.00;4916128;29;20463;-82
2023/07/31 01:31:25;;;;;;;1.90;1.70;;;17.40;70.70;;;17.58;58.58;97863.31;4924967;29;20554;-76
2023/07/31 01:33:56;;;;;;;2.80;1.30;;;17.50;70.70;;;17.46;58.81;97822.56;4932008;29;20476;-78
2023/07/31 01:36:24;;;;;;;1.50;1.30;;;17.60;71.40;;;17.39;59.23;97847.38;4938496;29;20967;-75
2023/07/31 01:38:51;;;;;;;2.90;1.40;;;17.50;70.40;;;17.43;58.84;97851.22;4922095;29;20979;-77
2023/07/31 01:41:20;;;;;;;3.47;1.50;;;17.40;70.40;;;17.47;58.91;97859.72;4931576;29;20484;-80
2023/07/31 01:43:49;;;;;;;3.63;1.20;;;17.40;70.50;;;17.36;59.68;97847.88;4928176;29;20526;-76
2023/07/31 01:46:16;;;;;;;3.10;1.90;;;17.30;70.90;;;17.63;59.13;97855.13;4928540;29;20474;-79
2023/07/31 01:48:43;;;;;;;3.93;1.70;;;17.40;71.10;;;16.97;59.11;97754.28;4927268;29;20472;-77
2023/07/31 01:51:11;;;;;;;4.70;1.70;;;17.40;71.40;;;17.42;59.24;97855.03;4931126;29;20466;-84
2023/07/31 01:53:38;;;;;;;1.97;1.27;;;17.40;71.00;;;17.63;60.21;97852.41;4931667;29;20486;-80
2023/07/31 01:56:05;;;;;;;1.40;1.20;;;17.40;71.20;;;17.64;58.94;97854.03;4928973;29;20464;-76
2023/07/31 01:58:34;;;;;;;1.70;1.27;;;17.40;71.00;;;17.68;59.68;97852.44;4922306;29;20566;-75
2023/07/31 02:01:02;;;;;;;1.77;1.10;;;17.40;71.40;;;17.28;59.70;97833.66;4910257;29;20466;-77
2023/07/31 02:03:29;;;;;;;2.20;1.43;;;17.40;71.00;;;16.84;59.64;97730.19;4924349;29;20559;-80
2023/07/31 02:05:57;;;;;;;2.43;1.57;;;17.50;71.10;;;17.07;60.44;97799.16;4918111;29;20468;-80
2023/07/31 02:08:24;;;;;;;2.60;1.67;;;17.40;71.20;;;17.36;59.51;97828.78;4920560;29;20479;-80
2023/07/31 02:10:52;;;;;;;1.53;1.43;;;17.40;70.90;;;17.51;60.00;97828.84;4929932;29;20894;-80
2023/07/31 02:13:21;;;;;;;3.03;1.33;;;17.50;71.00;;;17.59;59.12;97783.84;4913081;29;20507;-81
2023/07/31 02:15:50;;;;;;;4.97;1.40;;;17.60;71.20;;;17.60;59.23;97825.63;4934004;29;21036;-78
2023/07/31 02:18:22;;;;;;;3.10;1.70;;;17.50;70.80;;;16.97;59.39;97686.06;4945150;29;20454;-78
2023/07/31 02:20:51;;;;;;;2.47;2.00;;;17.60;71.20;;;18.15;62.90;97814.38;4928940;29;20495;-79
2023/07/31 02:23:18;;;;;;;2.73;1.40;;;17.70;74.50;;;17.99;60.38;97759.66;4911331;29;20471;-78
2023/07/31 02:25:46;;;;;;;2.20;1.53;;;18.00;73.00;;;18.61;58.09;97776.13;4925268;29;20562;-79
2023/07/31 02:28:13;;;;;;;5.53;2.00;;;18.40;72.50;;;18.18;57.60;97797.44;4930197;29;21097;-79
2023/07/31 02:30:43;;;;;;;1.50;1.40;;;18.20;70.40;;;18.75;59.96;97827.56;4928720;29;20474;-80
2023/07/31 02:33:13;;;;;;;4.00;2.03;;;18.30;73.20;;;18.74;60.25;97806.78;4925054;29;20494;-82
2023/07/31 02:35:40;;;;;;;3.33;2.40;;;18.40;73.00;;;18.76;57.57;97810.06;4927632;29;20935;-78
2023/07/31 02:38:08;;;;;;;3.27;1.87;;;18.50;70.90;;;18.83;59.11;97811.41;4914508;29;20463;-81
2023/07/31 02:40:36;;;;;;;4.40;1.77;;;18.50;72.80;;;18.82;58.41;97806.22;4909213;29;20514;-78
2023/07/31 02:43:04;;;;;;;4.10;2.20;;;18.60;72.00;;;19.04;58.10;97822.38;4918477;29;20459;-80
2023/07/31 02:45:31;;;;;;;2.20;1.73;;;18.80;72.40;;;18.75;57.32;97808.41;4928246;29;20468;-79
2023/07/31 02:47:59;;;;;;;2.73;1.50;;;18.60;70.80;;;18.67;56.93;97757.81;4930937;29;20456;-82
2023/07/31 02:50:28;;;;;;;1.70;1.60;;;18.90;71.20;;;19.04;56.92;97802.41;4911020;29;20460;-82
2023/07/31 02:52:55;;;;;;;2.03;1.80;;;18.90;70.80;;;18.59;59.07;97789.25;4926067;29;20589;-78
2023/07/31 02:55:23;;;;;;;2.67;1.70;;;18.60;71.60;;;19.47;57.41;97813.78;4920800;29;20467;-79
2023/07/31 02:57:52;;;;;;;3.13;1.83;;;19.00;72.30;;;19.13;55.99;97765.13;4928821;29;20462;-79
2023/07/31 03:00:20;;;;;;;3.83;1.90;;;19.10;71.20;;;19.20;57.49;97787.59;4914805;29;20461;-79
2023/07/31 03:02:47;;;;;;;4.77;1.43;;;19.10;71.70;;;19.39;57.25;97808.88;4929321;29;20469;-78
2023/07/31 03:05:16;;;;;;;3.40;1.57;;;19.10;70.90;;;19.32;58.06;97802.88;4914119;29;20786;-80
2023/07/31 03:07:44;;;;;;;2.70;1.50;;;19.00;71.70;;;19.62;55.50;97809.34;4935871;29;20458;-81
2023/07/31 03:10:12;;;;;;;3.00;1.83;;;19.30;70.90;;;18.72;56.33;97770.63;4914878;29;20464;-81
2023/07/31 03:12:41;;;;;;;2.53;1.87;;;18.90;69.90;;;18.93;57.69;97769.53;4929204;29;20972;-81
2023/07/31 03:15:09;;;;;;;2.07;1.73;;;19.00;70.90;;;19.01;57.67;97778.28;4939804;29;21170;-79
2023/07/31 03:17:36;;;;;;;2.90;1.60;;;19.00;71.20;;;18.78;57.51;97726.56;4914806;29;20465;-80
2023/07/31 03:20:05;;;;;;;2.17;1.50;;;19.00;71.40;;;19.02;56.61;97764.34;4931537;29;20498;-78
2023/07/31 03:22:34;;;;;;;1.77;1.63;;;18.90;70.80;;;18.91;56.22;97807.31;4934666;29;20997;-79
2023/07/31 03:25:03;;;;;;;2.27;1.50;;;18.90;70.00;;;18.89;56.50;97667.19;4921955;29;20554;-78
2023/07/31 03:27:31;;;;;;;6.73;1.93;;;19.10;71.40;;;19.40;56.99;97807.78;4925955;29;20449;-82
2023/07/31 03:29:58;;;;;;;1.60;1.50;;;19.20;70.80;;;19.57;55.29;97803.91;4927062;29;20458;-79
2023/07/31 03:32:26;;;;;;;2.33;1.90;;;19.30;70.00;;;19.21;57.16;97772.78;4932919;29;20574;-80
2023/07/31 03:34:53;;;;;;;3.13;2.00;;;19.10;71.00;;;19.37;57.22;97803.66;4933800;29;21058;-79
2023/07/31 03:37:21;;;;;;;2.03;1.70;;;19.20;70.80;;;19.30;55.95;97791.38;4938185;29;20549;-80
2023/07/31 03:39:48;;;;;;;5.30;1.80;;;19.20;69.80;;;18.89;55.85;97776.66;4920715;29;20458;-77
2023/07/31 03:42:17;;;;;;;1.60;1.50;;;18.90;69.70;;;19.38;57.45;97799.03;4916055;29;20482;-77
2023/07/31 03:44:46;;;;;;;3.27;1.97;;;19.00;71.20;;;19.21;56.63;97783.75;4924439;29;21045;-78
2023/07/31 03:47:16;;;;;;;4.13;2.00;;;19.10;70.20;;;19.10;56.18;97771.97;4928055;29;20472;-77
2023/07/31 03:49:43;;;;;;;3.40;2.07;;;19.00;70.60;;;18.63;57.52;97800.47;4941378;29;20477;-84
2023/07/31 03:52:11;;;;;;;2.83;1.83;;;18.70;70.00;;;18.16;58.63;97785.94;4921000;29;20465;-80
2023/07/31 03:54:39;;;;;;;2.43;1.60;;;18.30;70.30;;;18.07;61.05;97794.66;4930829;29;20976;-81
2023/07/31 03:57:07;;;;;;;2.60;1.70;;;18.00;71.80;;;18.13;59.01;97795.50;4938280;29;20457;-81
2023/07/31 03:59:43;;;;;;;7.33;2.30;;;18.00;71.00;;;17.46;60.32;97743.38;4933948;29;20472;-80
2023/07/31 04:02:10;;;;;;;1.93;1.47;;;17.70;71.40;;;18.22;59.95;97802.09;4933454;29;20458;-82
2023/07/31 04:04:39;;;;;;;5.53;1.90;;;17.80;72.30;;;17.70;61.14;97784.69;4938965;29;20463;-79
2023/07/31 04:07:09;;;;;;;4.83;1.73;;;17.70;71.70;;;17.77;59.75;97804.38;4934062;29;20584;-80
2023/07/31 04:09:39;;;;;;;2.80;1.87;;;17.70;71.40;;;17.93;59.99;97809.91;4907522;29;20488;-80
2023/07/31 04:12:08;;;;;;;3.30;1.80;;;17.70;71.70;;;17.83;59.96;97795.13;4931315;29;20553;-82
2023/07/31 04:14:35;;;;;;;2.70;2.00;;;17.70;71.20;;;17.93;59.18;97810.72;4937714;29;20488;-81
2023/07/31 04:17:03;;;;;;;2.33;1.90;;;17.80;71.20;;;17.86;60.81;97809.34;4925379;29;20476;-80
2023/07/31 04:19:32;;;;;;;3.17;2.10;;;17.70;71.90;;;17.96;60.13;97798.41;4928854;29;20541;-79
2023/07/31 04:22:00;;;;;;;2.80;2.00;;;17.80;72.00;;;18.35;60.67;97787.06;4942796;29;20469;-81
2023/07/31 04:24:27;;;;;;;4.87;2.33;;;18.00;72.80;;;18.15;60.29;97798.78;4944987;29;20489;-80
2023/07/31 04:26:56;;;;;;;4.93;2.97;;;18.00;72.20;;;17.05;60.29;97690.22;4933926;29;20607;-79
2023/07/31 04:29:24;;;;;;;2.40;1.93;;;17.80;71.60;;;18.05;60.89;97755.84;4919428;29;20549;-77
2023/07/31 04:31:51;;;;;;;3.97;1.90;;;17.90;73.60;;;18.33;59.49;97775.56;4932319;29;20454;-79
2023/07/31 04:34:20;;;;;;;4.00;2.17;;;18.30;72.80;;;17.95;60.66;97762.09;4899349;29;20991;-81
2023/07/31 04:36:47;;;;;;;3.53;1.97;;;18.10;72.60;;;18.44;59.58;97786.53;4922992;29;20850;-80
2023/07/31 04:39:16;;;;;;;2.67;2.23;;;18.40;72.10;;;18.41;60.06;97783.22;4935123;29;20502;-83
2023/07/31 04:41:43;;;;;;;3.43;2.00;;;18.40;72.60;;;19.12;57.57;97801.81;4927552;29;20468;-81
2023/07/31 04:44:12;;;;;;;2.33;2.03;;;18.80;72.20;;;18.67;59.97;97794.16;4915454;29;20464;-82
2023/07/31 04:46:40;;;;;;;2.00;1.60;;;18.50;72.10;;;18.91;58.85;97777.19;4933440;29;20485;-83
2023/07/31 04:49:10;;;;;;;2.30;1.50;;;18.70;72.20;;;19.56;57.33;97791.28;4915658;29;20820;-78
2023/07/31 04:51:41;;;;;;;9.33;3.20;;;19.10;71.90;;;19.37;55.73;97698.78;4934219;29;20481;-79
2023/07/31 04:54:09;;;;;;;1.77;1.60;;;19.60;71.00;;;19.41;55.76;97702.59;4919348;29;20480;-81
2023/07/31 04:56:37;;;;;;;2.37;1.97;;;19.60;70.60;;;20.19;54.64;97790.72;4932080;29;20472;-81
2023/07/31 04:59:04;;;;;;;2.90;1.97;;;19.90;70.20;;;20.28;54.33;97749.81;4917009;29;20452;-79
2023/07/31 05:01:31;;;;;;;2.23;1.53;;;20.10;70.40;;;20.01;55.35;97756.56;4927998;29;20542;-78
2023/07/31 05:03:59;;;;;;;2.20;2.00;;;19.90;70.20;;;20.25;55.13;97772.31;4941510;29;20467;-81
2023/07/31 05:06:25;;;;;;;4.73;2.00;;;19.90;70.20;;;19.85;54.49;97697.44;4932880;29;20557;-80
2023/07/31 05:08:57;;;;;;;2.40;2.03;;;20.10;69.70;;;20.35;54.42;97768.69;4921883;29;20628;-80
2023/07/31 05:11:25;;;;;;;3.50;1.90;;;20.00;69.80;;;20.55;53.33;97770.44;4906200;29;20524;-83
2023/07/31 05:13:53;;;;;;;4.13;1.87;;;20.30;69.30;;;20.13;54.06;97758.16;4936358;29;20478;-83
2023/07/31 05:16:20;;;;;;;2.10;1.57;;;20.10;69.00;;;20.26;54.07;97762.16;4919391;29;20466;-81
2023/07/31 05:18:49;;;;;;;2.20;1.67;;;20.00;69.10;;;19.96;53.10;97707.25;4934659;29;20453;-81
2023/07/31 05:21:16;;;;;;;3.53;1.53;;;20.20;68.80;;;19.75;55.24;97775.06;4924946;29;20455;-82
2023/07/31 05:23:44;;;;;;;2.23;1.90;;;19.70;69.20;;;19.16;54.88;97719.94;4927542;29;20466;-79
2023/07/31 05:26:15;;;;;;;2.37;2.00;;;19.50;68.70;;;19.51;56.41;97770.22;4924310;29;20501;-81
2023/07/31 05:28:42;;;;;;;3.47;1.67;;;19.30;69.80;;;19.90;55.84;97777.72;4915752;29;20922;-79
2023/07/31 05:31:10;;;;;;;2.10;1.57;;;19.50;69.90;;;19.95;54.05;97763.19;4922259;29;20837;-81
2023/07/31 05:33:37;;;;;;;2.10;1.90;;;19.70;68.90;;;20.29;54.33;97781.63;4932838;29;20872;-83
2023/07/31 05:36:06;;;;;;;2.53;1.63;;;19.90;69.30;;;20.46;53.16;97761.19;4910114;29;20464;-83
2023/07/31 05:38:34;;;;;;;3.73;1.83;;;20.10;69.00;;;19.54;53.81;97699.25;4924299;29;20471;-82
2023/07/31 05:41:01;;;;;;;1.60;1.50;;;20.00;68.30;;;19.00;55.30;97659.78;4915132;29;20459;-85
2023/07/31 05:43:30;;;;;;;3.23;2.20;;;19.60;68.90;;;19.27;55.32;97783.72;4902176;29;20458;-82
2023/07/31 05:45:58;;;;;;;5.30;1.80;;;19.30;68.20;;;19.13;55.62;97789.78;4931527;29;20464;-81
2023/07/31 05:48:25;;;;;;;26.33;8.07;;;19.10;68.90;;;18.60;59.65;97752.59;4921888;29;20459;-81
2023/07/31 05:50:52;;;;;;;4.87;2.10;;;18.70;70.70;;;18.26;57.85;97781.31;4933461;29;20802;-81
2023/07/31 05:53:20;;;;;;;9.83;3.97;;;18.60;69.10;;;18.49;57.95;97789.25;4911917;29;20545;-85
2023/07/31 05:55:47;;;;;;;8.83;5.40;;;18.40;69.80;;;18.42;57.05;97764.91;4924496;29;20459;-80
2023/07/31 05:58:14;;;;;;;5.70;3.20;;;18.50;69.40;;;18.55;57.12;97782.69;4914823;29;20467;-80
2023/07/31 06:00:43;;;;;;;7.00;2.53;;;18.60;69.20;;;18.93;55.97;97772.25;4926392;29;20518;-81
2023/07/31 06:03:10;;;;;;;2.93;2.20;;;18.80;69.30;;;18.87;56.01;97770.63;4908972;29;20451;-80
2023/07/31 06:05:37;;;;;;;3.27;2.17;;;18.80;69.10;;;18.91;55.80;97765.41;4921804;29;20559;-79
2023/07/31 06:08:05;;;;;;;8.57;4.27;;;18.80;68.60;;;18.12;56.01;97635.31;4909696;29;20478;-82
2023/07/31 06:10:32;;;;;;;18.90;9.37;;;18.80;69.00;;;18.75;56.88;97764.63;4907173;29;20567;-81
2023/07/31 06:13:00;;;;;;;4.93;2.10;;;18.80;69.00;;;18.68;56.63;97738.34;4922974;29;20463;-76
2023/07/31 06:15:27;;;;;;;17.90;10.67;;;18.70;69.00;;;18.33;56.43;97692.69;4919321;29;20496;-79
2023/07/31 06:17:57;;;;;;;4.20;2.83;;;18.90;69.20;;;19.07;55.54;97767.06;4930067;29;20478;-79
2023/07/31 06:20:24;;;;;;;4.40;2.33;;;19.00;68.70;;;19.31;54.95;97771.94;4902006;29;20473;-79
2023/07/31 06:22:52;;;;;;;3.50;1.90;;;19.10;68.40;;;19.09;54.98;97769.53;4921230;29;20468;-81
2023/07/31 06:25:19;;;;;;;2.63;2.13;;;19.10;68.10;;;19.02;56.14;97774.44;4929598;29;20489;-79
2023/07/31 06:27:47;;;;;;;3.93;2.20;;;19.00;68.70;;;19.20;55.09;97765.66;4923879;29;20465;-80
2023/07/31 06:30:14;;;;;;;1.77;1.63;;;19.10;68.40;;;19.58;54.37;97770.75;4929940;29;20476;-78
2023/07/31 06:32:43;;;;;;;2.50;1.93;;;19.30;68.30;;;19.78;53.32;97725.16;4946379;29;20523;-79
2023/07/31 06:35:11;;;;;;;3.07;1.87;;;19.80;68.30;;;19.97;52.11;97706.16;4931103;29;20484;-80
2023/07/31 06:37:43;;;;;;;2.93;2.00;;;20.20;67.30;;;20.02;52.77;97714.34;4918225;29;20459;-79
2023/07/31 06:40:12;;;;;;;2.20;1.80;;;20.30;67.50;;;20.26;51.91;97762.16;4919069;29;20580;-75
2023/07/31 06:42:39;;;;;;;3.17;2.50;;;20.30;66.70;;;19.62;52.87;97710.69;4908294;29;20467;-76
2023/07/31 06:45:08;;;;;;;4.30;1.93;;;20.10;67.10;;;20.60;52.01;97773.16;4918091;29;20452;-76
2023/07/31 06:47:35;;;;;;;2.47;1.87;;;20.30;67.30;;;20.37;52.00;97731.63;4912398;29;20466;-78
2023/07/31 06:50:03;;;;;;;8.00;2.50;;;20.30;67.10;;;20.67;51.13;97767.31;4929107;29;20464;-79
2023/07/31 06:52:32;;;;;;;3.83;2.00;;;20.60;66.20;;;20.53;51.70;97767.16;4924416;29;20469;-78
2023/07/31 06:55:16;;;;;;;2.43;1.50;;;20.50;66.30;;;20.19;52.12;97757.81;4924455;29;20524;-77
2023/07/31 06:57:44;;;;;;;4.20;1.53;;;20.40;66.20;;;20.04;52.41;97766.97;4902040;29;20475;-77
2023/07/31 07:00:12;;;;;;;3.10;1.87;;;20.10;66.00;;;20.10;51.98;97771.31;4918260;29;22750;-76
2023/07/31 07:02:39;;;;;;;2.90;2.00;;;20.20;66.00;;;20.14;51.84;97744.13;4919009;29;20573;-79
2023/07/31 07:05:08;;;;;;;3.57;1.50;;;20.20;66.00;;;20.47;51.28;97766.41;4917562;29;20461;-82
2023/07/31 07:07:37;;;;;;;3.43;1.80;;;20.30;65.90;;;20.76;50.80;97771.06;4919680;29;21134;-81
2023/07/31 07:10:06;;;;;;;3.63;1.73;;;20.50;65.80;;;20.65;51.45;97775.84;4925099;29;20459;-86
2023/07/31 07:12:34;;;;;;;5.00;1.80;;;20.50;65.80;;;20.10;52.41;97787.78;4927731;29;20457;-84
2023/07/31 07:15:02;;;;;;;1.77;1.50;;;20.30;65.90;;;19.99;52.24;97769.75;4925506;29;20484;-86
2023/07/31 07:17:31;;;;;;;2.73;2.30;;;20.10;65.90;;;20.13;52.40;97764.44;4933005;29;20485;-84
2023/07/31 07:20:03;;;;;;;6.40;2.40;;;20.10;66.20;;;20.00;52.56;97760.41;4937100;28;20555;-83
2023/07/31 07:22:30;;;;;;;2.30;1.80;;;20.00;66.20;;;20.31;52.17;97770.34;4944597;29;20484;-84
2023/07/31 07:24:59;;;;;;;2.87;1.50;;;20.10;66.60;;;20.39;51.62;97773.28;4937885;29;20474;-83
2023/07/31 07:27:27;;;;;;;3.43;2.20;;;20.30;66.00;;;20.64;51.14;97768.72;4935074;29;20903;-86
2023/07/31 07:29:54;;;;;;;2.40;2.20;;;20.60;65.80;;;20.79;50.78;97777.91;4923492;29;20464;-84
2023/07/31 07:32:22;;;;;;;3.47;2.33;;;20.70;65.50;;;20.58;51.01;97772.63;4938514;29;21004;-85
2023/07/31 07:34:50;;;;;;;2.60;1.60;;;20.70;65.20;;;20.67;50.71;97773.63;4939797;29;20504;-81
2023/07/31 07:37:17;;;;;;;2.57;1.87;;;20.70;65.30;;;20.90;50.87;97770.44;4925722;29;20483;-81
2023/07/31 07:39:45;;;;;;;1.57;1.40;;;20.80;65.80;;;20.94;50.54;97777.81;4935705;29;20492;-85
2023/07/31 07:42:13;;;;;;;4.37;2.57;;;20.80;65.10;;;20.86;50.43;97786.69;4936262;29;20469;-79
2023/07/31 07:44:43;;;;;;;3.93;1.80;;;20.80;65.30;;;20.77;50.86;97780.13;4928258;29;20522;-85
2023/07/31 07:47:10;;;;;;;3.10;2.10;;;20.70;65.10;;;20.73;50.75;97790.06;4943348;29;20512;-83
2023/07/31 07:49:37;;;;;;;2.53;2.17;;;20.70;65.20;;;20.37;52.00;97774.69;4937200;29;20960;-84
2023/07/31 07:52:06;;;;;;;3.00;1.87;;;20.50;65.30;;;20.71;50.67;97757.41;4933135;29;20472;-87
2023/07/31 07:54:33;;;;;;;5.40;2.20;;;20.60;65.40;;;21.09;50.15;97795.25;4947885;29;20487;-80
2023/07/31 07:57:00;;;;;;;2.90;1.80;;;20.80;65.30;;;21.07;50.00;97781.78;4941788;29;20452;-82
2023/07/31 07:59:30;;;;;;;2.30;1.77;;;20.90;64.80;;;21.03;49.78;97786.22;4943215;29;20992;-84
2023/07/31 08:01:58;;;;;;;3.83;2.23;;;20.90;64.60;;;21.22;49.30;97772.56;4952677;29;20961;-86
2023/07/31 08:04:25;;;;;;;2.53;1.77;;;21.10;64.60;;;21.60;48.43;97768.28;4931914;29;20469;-85
2023/07/31 08:06:53;;;;;;;8.30;2.00;;;21.40;64.30;;;21.46;48.53;97770.94;4928357;29;20468;-85
2023/07/31 08:09:20;;;;;;;2.40;2.03;;;21.40;63.70;;;21.64;48.68;97772.09;4950282;29;20529;-83
2023/07/31 08:11:47;;;;;;;3.33;1.83;;;21.50;63.90;;;22.30;47.03;97755.81;4936237;29;20469;-85
2023/07/31 08:14:15;;;;;;;3.23;2.00;;;22.00;63.70;;;22.19;46.86;97766.16;4917289;29;20488;-83
2023/07/31 08:16:44;;;;;;;2.33;2.10;;;22.20;62.80;;;21.93;47.73;97757.47;4943134;29;20448;-84
2023/07/31 08:19:11;;;;;;;5.47;1.80;;;22.10;63.00;;;22.53;46.58;97764.28;4937645;29;20477;-83
2023/07/31 08:21:38;;;;;;;3.83;2.47;;;22.30;62.70;;;21.79;47.92;97760.94;4928397;29;20973;-86
2023/07/31 08:24:05;;;;;;;4.00;2.00;;;22.20;62.60;;;22.67;46.05;97766.25;4936162;29;21224;-87
2023/07/31 08:26:33;;;;;;;3.30;2.50;;;22.50;62.50;;;22.83;45.61;97764.88;4934845;29;21109;-83
2023/07/31 08:29:00;;;;;;;3.10;1.90;;;22.70;62.10;;;22.36;46.85;97765.59;4930964;28;20740;-85
2023/07/31 08:31:29;;;;;;;3.73;1.80;;;22.50;61.90;;;22.89;45.65;97738.88;4926572;29;21103;-86
2023/07/31 08:33:58;;;;;;;2.10;1.87;;;22.70;62.00;;;22.96;45.17;97745.91;4930828;29;20921;-82
2023/07/31 08:36:25;;;;;;;4.10;2.00;;;22.90;61.30;;;23.66;44.38;97744.03;4947906;29;20464;-86
2023/07/31 08:38:52;;;;;;;2.93;2.07;;;23.30;61.80;;;23.67;44.09;97734.63;4937048;29;20482;-81
2023/07/31 08:41:22;;;;;;;3.97;2.10;;;23.50;61.10;;;23.55;43.93;97723.28;4958876;29;20462;-78
2023/07/31 08:43:51;;;;;;;3.40;1.80;;;23.60;60.40;;;23.34;44.59;97720.97;4956099;28;20443;-78
2023/07/31 08:46:21;;;;;;;2.03;1.83;;;23.40;60.80;;;23.33;44.87;97720.16;4943294;29;20452;-84
2023/07/31 08:48:49;;;;;;;3.10;2.00;;;23.30;60.80;;;23.61;44.68;97719.31;4949529;28;21029;-87
2023/07/31 08:51:17;;;;;;;3.90;1.80;;;23.40;61.00;;;23.69;44.06;97713.06;4949172;29;20514;-83
2023/07/31 08:53:45;;;;;;;2.10;1.60;;;23.50;60.40;;;23.33;43.82;97684.31;4941580;29;20985;-85
2023/07/31 08:56:14;;;;;;;3.57;2.17;;;23.40;60.10;;;23.43;44.34;97719.16;4938347;28;20458;-83
2023/07/31 08:58:43;;;;;;;2.83;1.90;;;23.40;60.60;;;23.10;45.45;97716.44;4933953;29;20473;-83
2023/07/31 09:01:10;;;;;;;3.23;1.87;;;23.10;60.80;;;22.66;45.67;97707.63;4940406;29;20850;-83
2023/07/31 09:03:40;;;;;;;4.83;2.20;;;22.90;60.30;;;22.48;46.36;97712.91;4933561;29;20978;-82
2023/07/31 09:06:08;;;;;;;3.30;1.93;;;22.60;60.80;;;22.53;46.26;97700.97;4946341;28;20461;-86
2023/07/31 09:08:40;;;;;;;2.43;1.97;;;22.60;61.10;;;22.28;46.82;97697.50;4932341;29;20528;-86
2023/07/31 09:11:07;;;;;;;2.47;1.70;;;22.40;61.40;;;22.54;47.25;97710.03;4924810;29;20468;-85
2023/07/31 09:13:34;;;;;;;2.53;1.87;;;22.50;61.80;;;22.90;46.12;97707.47;4948817;29;20455;-82
2023/07/31 09:16:04;;;;;;;3.03;2.10;;;22.70;61.60;;;22.63;47.16;97702.72;4933032;29;20547;-87
2023/07/31 09:18:31;;;;;;;2.63;1.80;;;22.60;61.80;;;22.25;47.85;97708.28;4917872;29;20473;-85
2023/07/31 09:21:03;;;;;;;2.53;1.90;;;22.30;61.80;;;22.62;47.17;97696.41;4943759;29;20455;-85
2023/07/31 09:23:44;;;;;;;2.80;1.90;;;22.40;61.90;;;22.89;46.47;97705.84;4943397;29;20566;-85
2023/07/31 09:26:11;;;;;;;3.17;1.87;;;22.70;61.90;;;22.14;46.26;97652.63;4939809;29;21026;-81
2023/07/31 09:28:38;;;;;;;2.10;1.70;;;22.50;60.90;;;22.56;45.98;97703.13;4931607;29;20481;-81
2023/07/31 09:31:06;;;;;;;2.80;1.90;;;22.50;60.70;;;23.35;44.65;97700.56;4929552;29;21122;-87
2023/07/31 09:33:34;;;;;;;4.33;1.90;;;23.00;60.70;;;23.06;44.66;97649.31;4928149;29;20470;-84
2023/07/31 09:36:02;;;;;;;2.67;1.77;;;23.20;60.40;;;23.36;44.92;97707.72;4928795;29;20485;-85
2023/07/31 09:38:29;;;;;;;2.47;1.77;;;23.30;60.50;;;23.71;44.29;97701.75;4934399;29;20877;-81
2023/07/31 09:41:00;;;;;;;3.23;2.20;;;23.50;60.30;;;24.17;42.80;97691.59;4927110;29;20470;-86
2023/07/31 09:43:29;;;;;;;3.10;1.83;;;24.00;59.80;;;24.24;42.65;97691.97;4918088;29;20518;-82
2023/07/31 09:45:58;;;;;;;3.27;1.93;;;24.10;59.70;;;23.72;43.66;97693.13;4933585;29;20533;-83
2023/07/31 09:48:27;;;;;;;2.43;1.63;;;23.90;59.50;;;24.03;43.69;97692.47;4895998;29;20938;-76
2023/07/31 09:50:55;;;;;;;2.17;1.80;;;23.90;59.90;;;23.99;43.07;97690.63;4938149;29;20461;-78
2023/07/31 09:53:30;;;;;;;3.07;1.90;;;24.00;59.30;;;23.20;44.93;97694.22;4915078;29;20567;-78
2023/07/31 09:56:02;;;;;;;2.40;1.90;;;23.50;59.40;;;23.40;45.17;97686.66;4916978;29;20566;-78
2023/07/31 09:58:30;;;;;;;3.13;1.73;;;23.30;59.90;;;23.35;45.22;97678.50;4923225;29;20482;-76
2023/07/31 10:01:00;;;;;;;6.30;2.07;;;23.40;60.10;;;23.76;44.04;97677.63;4933634;29;20516;-76
2023/07/31 10:03:28;;;;;;;3.63;1.97;;;23.60;59.90;;;24.24;43.85;97663.56;4936051;29;20451;-77
2023/07/31 10:05:58;;;;;;;4.47;2.87;;;23.90;60.00;;;24.55;42.82;97646.19;4930615;29;20498;-77
2023/07/31 10:08:31;;;;;;;2.50;1.80;;;24.40;59.80;;;24.95;42.05;97649.03;4940620;29;20828;-77
2023/07/31 10:11:02;;;;;;;3.30;2.00;;;24.80;59.40;;;24.74;42.47;97665.31;4921046;29;20466;-77
2023/07/31 10:13:31;;;;;;;4.07;2.40;;;24.70;59.10;;;24.65;43.09;97672.75;4907893;29;20507;-78
2023/07/31 10:16:01;;;;;;;4.80;2.20;;;24.50;59.30;;;24.47;42.90;97667.94;4925035;29;20881;-78
2023/07/31 10:18:29;;;;;;;3.20;2.27;;;24.40;59.20;;;24.25;43.47;97671.53;4924374;29;20472;-75
2023/07/31 10:20:57;;;;;;;5.13;2.47;;;24.40;59.00;;;24.39;43.15;97656.84;4918713;29;20475;-76
2023/07/31 10:23:25;;;;;;;3.93;2.20;;;24.30;59.00;;;24.28;42.78;97665.38;4911108;29;20456;-77
2023/07/31 10:25:55;;;;;;;1.67;1.57;;;24.30;58.90;;;24.30;42.74;97652.06;4912547;29;20478;-77